createdAt,value
2022-09-24T00:04:30.118Z,99355.88
2022-09-24T00:09:22.443Z,99353.88
2022-09-24T00:14:14.279Z,99356.47
2022-09-24T00:19:06.173Z,99351.59
2022-09-24T00:24:00.293Z,99347.91
2022-09-24T00:28:52.982Z,99361.13
2022-09-24T00:33:45.028Z,99356.63
2022-09-24T00:38:36.680Z,99356.25
2022-09-24T00:43:34.088Z,99368.63
2022-09-24T00:48:26.041Z,99366.84
2022-09-24T00:53:22.289Z,99368.81
2022-09-24T00:58:14.669Z,99371.75
2022-09-24T01:03:12.890Z,99375.16
2022-09-24T01:08:06.679Z,99371.22
2022-09-24T01:13:07.156Z,99375.25
2022-09-24T01:18:05.829Z,99379.91
2022-09-24T01:23:24.798Z,99373.97
2022-09-24T01:28:37.914Z,99368.03
2022-09-24T01:33:32.155Z,99366.81
2022-09-24T01:38:34.808Z,99356.41
2022-09-24T01:43:28.385Z,99356.88
2022-09-24T01:48:21.965Z,99356.88
2022-09-24T01:53:34.852Z,99360.44
2022-09-24T01:58:37.447Z,99350.41
2022-09-24T02:03:36.923Z,99357.50
2022-09-24T02:08:37.215Z,99341.69
2022-09-24T02:13:38.886Z,99350.84
2022-09-24T02:18:35.949Z,99350.50
2022-09-24T02:23:29.598Z,99344.91
2022-09-24T02:28:21.669Z,99348.69
2022-09-24T02:33:34.566Z,99351.03
2022-09-24T02:38:26.181Z,99361.28
2022-09-24T02:43:18.039Z,99342.53
2022-09-24T02:48:09.718Z,99352.75
2022-09-24T02:53:01.887Z,99350.50
2022-09-24T02:57:53.879Z,99356.38
2022-09-24T03:02:45.665Z,99354.34
2022-09-24T03:07:37.418Z,99352.06
2022-09-24T03:12:29.409Z,99344.63
2022-09-24T03:17:21.079Z,99356.75
2022-09-24T03:22:12.710Z,99360.50
2022-09-24T03:27:04.381Z,99364.88
2022-09-24T03:31:56.054Z,99363.34
2022-09-24T03:36:47.773Z,99359.75
2022-09-24T03:41:39.460Z,99362.88
2022-09-24T03:46:31.203Z,99365.34
2022-09-24T03:51:22.869Z,99366.41
2022-09-24T03:56:15.059Z,99370.53
2022-09-24T04:01:08.066Z,99369.88
2022-09-24T04:05:59.814Z,99373.19
2022-09-24T04:10:51.841Z,99384.63
2022-09-24T04:15:43.649Z,99377.94
2022-09-24T04:20:35.995Z,99373.09
2022-09-24T04:25:30.961Z,99377.28
2022-09-24T04:30:23.686Z,99377.88
2022-09-24T04:35:15.307Z,99386.63
2022-09-24T04:40:12.703Z,99380.81
2022-09-24T04:45:06.020Z,99381.88
2022-09-24T04:49:57.737Z,99386.47
2022-09-24T04:54:49.289Z,99387.97
2022-09-24T04:59:41.434Z,99389.00
2022-09-24T05:04:33.115Z,99382.34
2022-09-24T05:09:24.842Z,99395.69
2022-09-24T05:14:16.518Z,99393.41
2022-09-24T05:19:08.267Z,99390.94
2022-09-24T05:23:59.894Z,99388.06
2022-09-24T05:28:53.102Z,99390.78
2022-09-24T05:33:44.781Z,99396.44
2022-09-24T05:38:39.796Z,99399.97
2022-09-24T05:43:33.138Z,99414.16
2022-09-24T05:48:26.145Z,99420.25
2022-09-24T05:53:18.434Z,99415.06
2022-09-24T05:58:11.331Z,99425.75
2022-09-24T06:03:11.005Z,99434.75
2022-09-24T06:08:04.306Z,99435.19
2022-09-24T06:12:56.846Z,99434.59
2022-09-24T06:17:48.649Z,99439.00
2022-09-24T06:22:40.535Z,99444.03
2022-09-24T06:27:32.153Z,99440.09
2022-09-24T06:32:24.553Z,99453.84
2022-09-24T06:37:16.311Z,99441.19
2022-09-24T06:42:07.934Z,99451.44
2022-09-24T06:47:00.497Z,99458.09
2022-09-24T06:51:54.263Z,99463.69
2022-09-24T06:56:46.118Z,99466.22
2022-09-24T07:01:37.816Z,99468.50
2022-09-24T07:06:49.660Z,99477.22
2022-09-24T07:11:41.949Z,99478.44
2022-09-24T07:16:33.689Z,99480.84
2022-09-24T07:21:25.701Z,99479.59
2022-09-24T07:26:17.408Z,99486.06
2022-09-24T07:31:09.397Z,99491.16
2022-09-24T07:36:07.255Z,99487.25
2022-09-24T07:40:59.403Z,99484.38
2022-09-24T07:45:53.487Z,99491.56
2022-09-24T07:50:45.270Z,99492.66
2022-09-24T07:55:40.516Z,99485.19
2022-09-24T08:00:32.123Z,99484.19
2022-09-24T08:05:23.839Z,99487.16
2022-09-24T08:10:15.576Z,99487.91
2022-09-24T08:15:07.825Z,99492.94
2022-09-24T08:19:59.553Z,99501.31
2022-09-24T08:24:51.219Z,99505.88
2022-09-24T08:29:42.894Z,99508.59
2022-09-24T08:34:38.553Z,99507.19
2022-09-24T08:39:30.446Z,99515.34
2022-09-24T08:44:55.187Z,99506.75
2022-09-24T08:49:52.604Z,99515.94
2022-09-24T08:54:48.725Z,99524.09
2022-09-24T08:59:44.157Z,99530.53
2022-09-24T09:04:48.557Z,99532.72
2022-09-24T09:09:46.680Z,99526.56
2022-09-24T09:14:56.965Z,99523.09
2022-09-24T09:19:57.661Z,99529.44
2022-09-24T09:24:52.081Z,99539.88
2022-09-24T09:29:50.832Z,99538.88
2022-09-24T09:34:48.363Z,99546.63
2022-09-24T09:39:55.158Z,99545.19
2022-09-24T09:44:47.027Z,99540.06
2022-09-24T09:49:40.475Z,99541.94
2022-09-24T09:54:39.831Z,99548.81
2022-09-24T09:59:34.165Z,99557.09
2022-09-24T10:04:31.175Z,99557.84
2022-09-24T10:09:22.739Z,99559.94
2022-09-24T10:14:18.344Z,99554.56
2022-09-24T10:19:36.804Z,99544.34
2022-09-24T10:24:29.301Z,99548.16
2022-09-24T10:29:51.245Z,99549.91
2022-09-24T10:34:42.981Z,99543.94
2022-09-24T10:39:34.931Z,99555.72
2022-09-24T10:44:37.671Z,99551.44
2022-09-24T10:49:50.661Z,99552.59
2022-09-24T10:55:13.038Z,99561.97
2022-09-24T11:00:19.777Z,99551.69
2022-09-24T11:05:15.631Z,99554.53
2022-09-24T11:10:10.478Z,99560.28
2022-09-24T11:15:26.881Z,99556.91
2022-09-24T11:20:29.895Z,99555.19
2022-09-24T11:25:44.918Z,99550.31
2022-09-24T11:30:47.917Z,99544.31
2022-09-24T11:36:13.496Z,99553.97
2022-09-24T11:41:17.159Z,99561.56
2022-09-24T11:46:17.706Z,99566.56
2022-09-24T11:51:30.268Z,99562.84
2022-09-24T11:56:26.242Z,99567.22
2022-09-24T12:01:29.908Z,99561.81
2022-09-24T12:06:37.964Z,99562.28
2022-09-24T12:11:36.355Z,99556.75
2022-09-24T12:16:33.587Z,99569.13
2022-09-24T12:21:34.613Z,99556.75
2022-09-24T12:26:28.814Z,99568.88
2022-09-24T12:31:54.692Z,99573.34
2022-09-24T12:36:59.936Z,99570.69
2022-09-24T12:41:59.891Z,99586.03
2022-09-24T12:46:54.780Z,99589.63
2022-09-24T12:51:47.593Z,99592.94
2022-09-24T12:56:41.138Z,99587.78
2022-09-24T13:01:34.351Z,99589.63
2022-09-24T13:06:35.516Z,99591.84
2022-09-24T13:11:29.839Z,99583.03
2022-09-24T13:16:23.057Z,99588.59
2022-09-24T13:21:41.033Z,99582.78
2022-09-24T13:26:35.885Z,99583.34
2022-09-24T13:31:27.639Z,99576.22
2022-09-24T13:36:31.463Z,99581.13
2022-09-24T13:41:31.768Z,99580.84
2022-09-24T13:46:25.829Z,99572.63
2022-09-24T13:51:21.249Z,99576.75
2022-09-24T13:56:17.066Z,99573.97
2022-09-24T14:01:14.036Z,99571.75
2022-09-24T14:06:17.667Z,99569.81
2022-09-24T14:11:19.613Z,99571.94
2022-09-24T14:16:16.742Z,99577.94
2022-09-24T14:21:22.978Z,99579.97
2022-09-24T14:26:31.684Z,99579.66
2022-09-24T14:31:23.808Z,99587.00
2022-09-24T14:36:16.973Z,99585.09
2022-09-24T14:41:18.146Z,99582.94
2022-09-24T14:46:17.529Z,99584.63
2022-09-24T14:51:26.042Z,99577.22
2022-09-24T14:56:28.720Z,99573.38
2022-09-24T15:01:25.040Z,99575.31
2022-09-24T15:06:26.549Z,99579.66
2022-09-24T15:11:18.319Z,99574.03
2022-09-24T15:16:21.426Z,99588.19
2022-09-24T15:21:13.515Z,99598.47
2022-09-24T15:26:05.302Z,99603.31
2022-09-24T15:30:57.451Z,99600.47
2022-09-24T15:35:49.407Z,99614.66
2022-09-24T15:40:42.248Z,99615.69
2022-09-24T15:45:33.939Z,99606.06
2022-09-24T15:50:26.420Z,99606.84
2022-09-24T15:55:20.537Z,99623.25
2022-09-24T16:00:18.387Z,99629.03
2022-09-24T16:05:12.986Z,99626.25
2022-09-24T16:10:05.136Z,99634.09
2022-09-24T16:14:59.445Z,99640.06
2022-09-24T16:19:51.392Z,99641.88
2022-09-24T16:24:43.043Z,99642.84
2022-09-24T16:29:34.834Z,99645.47
2022-09-24T16:34:26.720Z,99655.53
2022-09-24T16:39:19.615Z,99657.94
2022-09-24T16:44:15.257Z,99668.97
2022-09-24T16:49:07.188Z,99670.38
2022-09-24T16:53:59.099Z,99667.59
2022-09-24T16:58:52.541Z,99679.53
2022-09-24T17:03:44.903Z,99684.84
2022-09-24T17:08:55.533Z,99700.03
2022-09-24T17:13:47.863Z,99708.41
2022-09-24T17:18:39.657Z,99706.06
2022-09-24T17:23:31.389Z,99719.91
2022-09-24T17:28:22.981Z,99722.31
2022-09-24T17:33:39.025Z,99730.34
2022-09-24T17:38:27.364Z,99744.06
2022-09-24T17:43:19.021Z,99743.53
2022-09-24T17:48:10.702Z,99749.31
2022-09-24T17:53:03.965Z,99750.38
2022-09-24T17:57:55.728Z,99772.16
2022-09-24T18:02:47.402Z,99764.03
2022-09-24T18:07:39.237Z,99766.53
2022-09-24T18:12:30.982Z,99767.72
2022-09-24T18:17:22.539Z,99763.47
2022-09-24T18:22:14.332Z,99765.50
2022-09-24T18:27:06.046Z,99765.63
2022-09-24T18:31:57.753Z,99770.13
2022-09-24T18:36:49.541Z,99775.09
2022-09-24T18:41:42.724Z,99781.97
2022-09-24T18:46:34.698Z,99795.34
2022-09-24T18:51:32.438Z,99801.81
2022-09-24T18:56:24.917Z,99814.44
2022-09-24T19:01:16.818Z,99824.03
2022-09-24T19:06:08.548Z,99823.16
2022-09-24T19:11:07.730Z,99825.38
2022-09-24T19:16:04.527Z,99841.88
2022-09-24T19:20:57.496Z,99840.31
2022-09-24T19:25:49.499Z,99834.56
2022-09-24T19:30:46.050Z,99841.78
2022-09-24T19:35:38.023Z,99849.75
2022-09-24T19:40:31.557Z,99839.78
2022-09-24T19:45:26.117Z,99848.63
2022-09-24T19:50:20.055Z,99851.22
2022-09-24T19:55:11.921Z,99853.59
2022-09-24T20:00:05.595Z,99860.03
2022-09-24T20:04:57.333Z,99871.19
2022-09-24T20:09:49.225Z,99878.78
2022-09-24T20:14:41.220Z,99874.66
2022-09-24T20:19:32.975Z,99888.53
2022-09-24T20:24:24.806Z,99889.41
2022-09-24T20:29:16.631Z,99890.97
2022-09-24T20:34:09.712Z,99892.50
2022-09-24T20:39:01.789Z,99885.66
2022-09-24T20:43:57.651Z,99892.19
2022-09-24T20:48:50.129Z,99890.56
2022-09-24T20:53:44.058Z,99888.50
2022-09-24T20:58:37.070Z,99887.28
2022-09-24T21:03:44.047Z,99888.34
2022-09-24T21:08:42.190Z,99892.97
2022-09-24T21:13:34.713Z,99898.44
2022-09-24T21:18:35.739Z,99893.66
2022-09-24T21:23:32.940Z,99888.88
2022-09-24T21:28:24.607Z,99899.94
2022-09-24T21:33:16.487Z,99889.13
2022-09-24T21:38:08.113Z,99899.56
2022-09-24T21:43:00.284Z,99915.44
2022-09-24T21:47:53.258Z,99915.66
2022-09-24T21:52:45.023Z,99916.69
2022-09-24T21:57:36.792Z,99916.91
2022-09-24T22:02:28.893Z,99909.84
2022-09-24T22:07:20.594Z,99908.38
2022-09-24T22:12:12.434Z,99904.63
2022-09-24T22:17:05.953Z,99898.59
2022-09-24T22:21:58.264Z,99896.09
2022-09-24T22:26:50.305Z,99903.44
2022-09-24T22:31:41.930Z,99906.56
2022-09-24T22:36:35.425Z,99903.44
2022-09-24T22:41:29.134Z,99903.03
2022-09-24T22:46:21.954Z,99907.38
2022-09-24T22:51:14.964Z,99915.94
2022-09-24T22:56:12.276Z,99920.94
2022-09-24T23:01:17.464Z,99910.94
2022-09-24T23:06:11.077Z,99917.22
2022-09-24T23:11:14.746Z,99916.16
2022-09-24T23:16:14.994Z,99912.22
2022-09-24T23:21:11.626Z,99910.75
2022-09-24T23:26:19.024Z,99912.63
2022-09-24T23:31:13.849Z,99907.00
2022-09-24T23:36:07.207Z,99914.94
2022-09-24T23:41:00.751Z,99909.72
2022-09-24T23:45:52.568Z,99901.38
2022-09-24T23:50:44.519Z,99902.59
2022-09-24T23:55:36.480Z,99909.25
